createdAt,value
2023-04-02T00:00:10.400Z,99323.78
2023-04-02T00:03:10.441Z,99333.47
2023-04-02T00:05:50.137Z,99345.78
2023-04-02T00:08:45.735Z,99360.75
2023-04-02T00:11:38.933Z,99366.06
2023-04-02T00:14:16.423Z,99378.38
2023-04-02T00:16:44.513Z,99389.81
2023-04-02T00:19:22.199Z,99398.63
2023-04-02T00:21:51.207Z,99411.81
2023-04-02T00:24:21.716Z,99418.84
2023-04-02T00:26:51.578Z,99433.78
2023-04-02T00:29:19.507Z,99440.81
2023-04-02T00:31:54.479Z,99448.75
2023-04-02T00:34:28.072Z,99454.03
2023-04-02T00:36:55.412Z,99465.44
2023-04-02T00:39:29.241Z,99472.50
2023-04-02T00:42:04.940Z,99473.38
2023-04-02T00:44:44.309Z,99483.91
2023-04-02T00:47:27.738Z,99484.78
2023-04-02T00:50:24.732Z,99485.66
2023-04-02T00:52:53.638Z,99484.78
2023-04-02T00:55:40.001Z,99476.84
2023-04-02T00:58:28.292Z,99478.59
2023-04-02T01:00:56.730Z,99467.16
2023-04-02T01:03:35.185Z,99469.81
2023-04-02T01:06:14.279Z,99483.91
2023-04-02T01:08:56.781Z,99494.47
2023-04-02T01:11:24.063Z,99507.66
2023-04-02T01:14:58.368Z,99519.09
2023-04-02T01:18:31.418Z,99532.25
2023-04-02T01:21:34.272Z,99542.78
2023-04-02T01:24:09.876Z,99546.31
2023-04-02T01:26:46.570Z,99550.69
2023-04-02T01:29:33.441Z,99557.72
2023-04-02T01:32:11.795Z,99562.13
2023-04-02T01:34:39.791Z,99577.06
2023-04-02T01:37:32.460Z,99579.69
2023-04-02T01:40:20.811Z,99581.47
2023-04-02T01:43:20.559Z,99583.22
2023-04-02T01:45:48.226Z,99592.88
2023-04-02T01:48:24.824Z,99593.75
2023-04-02T01:50:55.172Z,99605.19
2023-04-02T01:53:26.179Z,99604.28
2023-04-02T01:56:00.648Z,99613.97
2023-04-02T01:58:34.339Z,99620.09
2023-04-02T02:01:06.819Z,99623.63
2023-04-02T02:03:34.771Z,99630.66
2023-04-02T02:06:03.441Z,99628.00
2023-04-02T02:08:37.046Z,99634.16
2023-04-02T02:11:05.701Z,99635.03
2023-04-02T02:13:33.610Z,99642.06
2023-04-02T02:16:01.995Z,99642.06
2023-04-02T02:18:29.874Z,99652.63
2023-04-02T02:20:58.907Z,99664.03
2023-04-02T02:23:29.298Z,99667.53
2023-04-02T02:25:56.674Z,99677.22
2023-04-02T02:28:36.632Z,99680.72
2023-04-02T02:31:13.684Z,99685.97
2023-04-02T02:33:50.442Z,99698.28
2023-04-02T02:37:07.680Z,99709.66
2023-04-02T02:39:44.446Z,99714.06
2023-04-02T02:42:27.325Z,99717.56
2023-04-02T02:44:56.701Z,99719.31
2023-04-02T02:47:35.512Z,99730.72
2023-04-02T02:50:08.046Z,99734.22
2023-04-02T02:52:39.953Z,99737.72
2023-04-02T02:55:16.984Z,99734.19
2023-04-02T02:57:59.595Z,99732.44
2023-04-02T03:00:27.309Z,99732.44
2023-04-02T03:02:57.142Z,99735.97
2023-04-02T03:05:27.884Z,99728.94
2023-04-02T03:07:57.601Z,99727.16
2023-04-02T03:10:36.901Z,99729.81
2023-04-02T03:13:33.378Z,99723.63
2023-04-02T03:16:15.459Z,99723.63
2023-04-02T03:18:47.265Z,99720.13
2023-04-02T03:21:40.117Z,99723.63
2023-04-02T03:24:32.706Z,99724.50
2023-04-02T03:27:12.146Z,99724.50
2023-04-02T03:29:53.401Z,99725.38
2023-04-02T03:32:32.507Z,99725.34
2023-04-02T03:35:27.619Z,99732.38
2023-04-02T03:38:19.758Z,99734.13
2023-04-02T03:41:07.882Z,99733.25
2023-04-02T03:43:46.873Z,99737.66
2023-04-02T03:46:25.309Z,99750.81
2023-04-02T03:48:59.942Z,99748.19
2023-04-02T03:52:05.010Z,99759.59
2023-04-02T03:54:32.485Z,99764.00
2023-04-02T03:57:00.593Z,99766.63
2023-04-02T03:59:54.807Z,99771.91
2023-04-02T04:02:41.243Z,99777.19
2023-04-02T04:05:26.634Z,99778.91
2023-04-02T04:08:01.000Z,99776.25
2023-04-02T04:10:29.434Z,99778.88
2023-04-02T04:13:09.121Z,99781.50
2023-04-02T04:16:00.417Z,99787.66
2023-04-02T04:18:57.490Z,99790.28
2023-04-02T04:21:37.162Z,99795.53
2023-04-02T04:24:13.007Z,99799.94
2023-04-02T04:27:04.066Z,99809.59
2023-04-02T04:29:31.674Z,99804.34
2023-04-02T04:32:21.269Z,99809.63
2023-04-02T04:34:53.782Z,99814.00
2023-04-02T04:37:29.308Z,99828.09
2023-04-02T04:40:06.630Z,99832.47
2023-04-02T04:42:36.893Z,99835.13
2023-04-02T04:45:07.026Z,99835.09
2023-04-02T04:47:39.727Z,99846.53
2023-04-02T04:50:22.376Z,99846.53
2023-04-02T04:52:49.461Z,99844.75
2023-04-02T04:55:42.699Z,99854.41
2023-04-02T04:58:25.385Z,99858.81
2023-04-02T05:01:04.329Z,99865.81
2023-04-02T05:03:40.246Z,99863.19
2023-04-02T05:06:34.955Z,99872.00
2023-04-02T05:09:39.288Z,99870.22
2023-04-02T05:12:26.804Z,99871.09
2023-04-02T05:15:09.827Z,99878.13
2023-04-02T05:17:50.637Z,99885.16
2023-04-02T05:20:28.121Z,99891.34
2023-04-02T05:23:04.160Z,99895.72
2023-04-02T05:25:33.273Z,99903.66
2023-04-02T05:28:15.409Z,99913.34
2023-04-02T05:31:06.158Z,99915.09
2023-04-02T05:33:37.505Z,99918.59
2023-04-02T05:36:21.739Z,99923.84
2023-04-02T05:38:51.412Z,99922.94
2023-04-02T05:41:42.295Z,99922.94
2023-04-02T05:44:28.889Z,99932.63
2023-04-02T05:47:19.340Z,99927.34
2023-04-02T05:50:10.218Z,99931.72
2023-04-02T05:52:46.038Z,99929.09
2023-04-02T05:55:13.446Z,99920.31
2023-04-02T05:58:07.399Z,99927.34
2023-04-02T06:00:42.704Z,99924.75
2023-04-02T06:03:46.532Z,99924.75
2023-04-02T06:06:29.665Z,99928.31
2023-04-02T06:09:05.587Z,99933.59
2023-04-02T06:12:41.008Z,99936.25
2023-04-02T06:15:21.539Z,99939.81
2023-04-02T06:18:00.278Z,99946.84
2023-04-02T06:20:28.276Z,99949.50
2023-04-02T06:23:07.380Z,99953.91
2023-04-02T06:25:42.110Z,99954.84
2023-04-02T06:28:26.713Z,99965.38
2023-04-02T06:30:58.436Z,99969.88
2023-04-02T06:33:25.827Z,99981.31
2023-04-02T06:35:54.872Z,100003.31
2023-04-02T06:38:27.507Z,100003.38
2023-04-02T06:41:03.822Z,100020.09
2023-04-02T06:43:43.263Z,100026.28
2023-04-02T06:46:20.053Z,100033.34
2023-04-02T06:48:48.569Z,100044.03
2023-04-02T06:51:19.092Z,100051.94
2023-04-02T06:53:51.762Z,100067.81
2023-04-02T06:56:42.361Z,100072.28
2023-04-02T06:59:12.770Z,100085.50
2023-04-02T07:01:51.603Z,100096.91
2023-04-02T07:04:20.988Z,100113.66
2023-04-02T07:06:48.616Z,100117.28
2023-04-02T07:09:16.809Z,100134.84
2023-04-02T07:11:44.332Z,100147.16
2023-04-02T07:14:13.146Z,100155.97
2023-04-02T07:16:42.399Z,100172.81
2023-04-02T07:19:20.087Z,100185.16
2023-04-02T07:21:47.992Z,100195.72
2023-04-02T07:24:15.535Z,100208.03
2023-04-02T07:26:43.366Z,100218.69
2023-04-02T07:29:16.111Z,100235.53
2023-04-02T07:31:43.795Z,100249.72
2023-04-02T07:34:11.257Z,100261.22
2023-04-02T07:36:38.595Z,100262.03
2023-04-02T07:39:06.304Z,100271.66
2023-04-02T07:41:33.611Z,100285.91
2023-04-02T07:44:01.131Z,100293.94
2023-04-02T07:46:28.497Z,100304.59
2023-04-02T07:48:56.095Z,100306.34
2023-04-02T07:51:26.302Z,100308.13
2023-04-02T07:53:56.500Z,100321.53
2023-04-02T07:56:25.355Z,100314.34
2023-04-02T07:58:53.038Z,100315.31
2023-04-02T08:01:28.114Z,100313.69
2023-04-02T08:03:57.594Z,100319.09
2023-04-02T08:06:25.675Z,100313.84
2023-04-02T08:08:53.248Z,100311.19
2023-04-02T08:11:20.838Z,100296.22
2023-04-02T08:13:48.238Z,100306.00
2023-04-02T08:16:16.127Z,100316.72
2023-04-02T08:18:43.148Z,100301.69
2023-04-02T08:21:11.642Z,100290.13
2023-04-02T08:23:38.638Z,100317.69
2023-04-02T08:26:06.674Z,100302.69
2023-04-02T08:28:34.345Z,100295.56
2023-04-02T08:31:02.430Z,100289.31
2023-04-02T08:33:30.011Z,100298.19
2023-04-02T08:35:57.420Z,100304.41
2023-04-02T08:38:25.416Z,100312.41
2023-04-02T08:40:56.820Z,100311.56
2023-04-02T08:43:48.802Z,100300.09
2023-04-02T08:46:42.506Z,100268.28
2023-04-02T08:49:43.691Z,100301.97
2023-04-02T08:52:27.928Z,100289.59
2023-04-02T08:54:57.982Z,100297.56
2023-04-02T08:57:36.098Z,100310.84
2023-04-02T09:00:23.184Z,100296.69
2023-04-02T09:03:01.279Z,100285.19
2023-04-02T09:05:35.070Z,100302.00
2023-04-02T09:08:07.915Z,100270.19
2023-04-02T09:10:44.638Z,100279.91
2023-04-02T09:13:27.293Z,100292.28
2023-04-02T09:16:08.393Z,100305.53
2023-04-02T09:18:36.791Z,100307.31
2023-04-02T09:21:49.288Z,100277.25
2023-04-02T09:24:16.744Z,100277.25
2023-04-02T09:26:43.692Z,100279.03
2023-04-02T09:29:14.125Z,100284.34
2023-04-02T09:31:48.074Z,100302.00
2023-04-02T09:34:32.479Z,100289.63
2023-04-02T09:37:25.910Z,100298.47
2023-04-02T09:40:11.595Z,100310.84
2023-04-02T09:42:38.927Z,100324.09
2023-04-02T09:45:34.360Z,100313.50
2023-04-02T09:48:02.549Z,100316.16
2023-04-02T09:50:33.908Z,100299.34
2023-04-02T09:53:34.196Z,100270.19
2023-04-02T09:56:13.151Z,100276.34
2023-04-02T09:58:42.348Z,100324.09
2023-04-02T10:01:33.362Z,100317.00
2023-04-02T10:04:02.004Z,100314.34
2023-04-02T10:06:31.177Z,100324.94
2023-04-02T10:08:58.414Z,100339.97
2023-04-02T10:11:46.201Z,100340.84
2023-04-02T10:14:23.298Z,100360.25
2023-04-02T10:16:54.373Z,100370.84
2023-04-02T10:19:30.840Z,100367.34
2023-04-02T10:22:02.204Z,100361.97
2023-04-02T10:24:29.784Z,100340.38
2023-04-02T10:27:39.841Z,100380.72
2023-04-02T10:30:45.253Z,100403.47
2023-04-02T10:33:27.634Z,100418.31
2023-04-02T10:36:08.588Z,100422.56
2023-04-02T10:38:42.636Z,100430.56
2023-04-02T10:41:18.223Z,100425.75
2023-04-02T10:43:45.717Z,100429.06
2023-04-02T10:46:37.878Z,100436.25
2023-04-02T10:49:22.256Z,100449.53
2023-04-02T10:52:25.706Z,100461.91
2023-04-02T10:54:57.332Z,100457.34
2023-04-02T10:57:54.388Z,100445.88
2023-04-02T11:00:28.130Z,100448.44
2023-04-02T11:03:15.133Z,100459.88
2023-04-02T11:05:47.755Z,100455.19
2023-04-02T11:08:47.877Z,100471.84
2023-04-02T11:11:15.214Z,100490.38
2023-04-02T11:14:05.100Z,100505.44
2023-04-02T11:16:33.033Z,100492.56
2023-04-02T11:19:15.645Z,100511.94
2023-04-02T11:22:01.838Z,100521.22
2023-04-02T11:24:30.388Z,100533.53
2023-04-02T11:27:14.459Z,100551.28
2023-04-02T11:30:16.315Z,100563.56
2023-04-02T11:32:51.809Z,100570.34
2023-04-02T11:35:30.907Z,100567.84
2023-04-02T11:38:09.642Z,100585.69
2023-04-02T11:40:59.475Z,100568.19
2023-04-02T11:43:36.128Z,100592.53
2023-04-02T11:46:42.274Z,100590.97
2023-04-02T11:49:40.259Z,100588.03
2023-04-02T11:52:45.803Z,100599.47
2023-04-02T11:55:31.314Z,100597.44
2023-04-02T11:58:39.000Z,100601.84
2023-04-02T12:01:09.172Z,100600.72
2023-04-02T12:04:13.417Z,100597.91
2023-04-02T12:07:07.543Z,100617.38
2023-04-02T12:09:42.707Z,100615.59
2023-04-02T12:12:39.012Z,100611.75
2023-04-02T12:15:35.451Z,100621.56
2023-04-02T12:18:26.421Z,100612.47
2023-04-02T12:20:56.923Z,100618.44
2023-04-02T12:23:34.088Z,100615.88
2023-04-02T12:26:08.770Z,100622.06
2023-04-02T12:28:38.329Z,100621.97
2023-04-02T12:31:18.507Z,100619.06
2023-04-02T12:33:46.047Z,100642.09
2023-04-02T12:36:16.167Z,100638.56
2023-04-02T12:38:56.102Z,100643.91
2023-04-02T12:41:31.258Z,100656.28
2023-04-02T12:43:59.812Z,100658.97
2023-04-02T12:46:28.537Z,100672.25
2023-04-02T12:49:07.862Z,100662.38
2023-04-02T12:51:36.813Z,100674.94
2023-04-02T12:54:04.611Z,100664.78
2023-04-02T12:56:32.263Z,100664.03
2023-04-02T12:59:00.821Z,100685.34
2023-04-02T13:01:31.915Z,100684.31
2023-04-02T13:04:12.889Z,100678.00
2023-04-02T13:06:42.535Z,100672.66
2023-04-02T13:09:29.447Z,100672.75
2023-04-02T13:11:57.116Z,100670.56
2023-04-02T13:14:26.021Z,100674.06
2023-04-02T13:16:53.888Z,100677.81
2023-04-02T13:19:35.067Z,100683.91
2023-04-02T13:22:03.865Z,100657.97
2023-04-02T13:24:33.146Z,100676.41
2023-04-02T13:27:02.976Z,100676.41
2023-04-02T13:29:35.916Z,100672.91
2023-04-02T13:32:12.406Z,100686.97
2023-04-02T13:34:39.794Z,100687.97
2023-04-02T13:37:07.153Z,100693.06
2023-04-02T13:39:34.517Z,100687.16
2023-04-02T13:42:04.402Z,100682.53
2023-04-02T13:44:34.477Z,100684.56
2023-04-02T13:47:01.968Z,100687.81
2023-04-02T13:49:29.940Z,100689.59
2023-04-02T13:52:05.481Z,100678.47
2023-04-02T13:54:47.121Z,100682.31
2023-04-02T13:57:15.537Z,100685.91
2023-04-02T13:59:43.653Z,100690.22
2023-04-02T14:02:18.276Z,100701.41
2023-04-02T14:04:51.042Z,100694.22
2023-04-02T14:07:58.675Z,100709.31
2023-04-02T14:10:37.593Z,100702.84
2023-04-02T14:13:51.192Z,100724.19
2023-04-02T14:16:51.946Z,100715.16
2023-04-02T14:19:51.127Z,100715.13
2023-04-02T14:23:13.586Z,100714.91
2023-04-02T14:26:28.726Z,100709.63
2023-04-02T14:29:09.581Z,100725.78
2023-04-02T14:31:47.506Z,100722.09
2023-04-02T14:34:51.594Z,100731.69
2023-04-02T14:38:03.137Z,100732.53
2023-04-02T14:40:51.703Z,100734.19
2023-04-02T14:43:22.400Z,100728.13
2023-04-02T14:46:02.983Z,100747.41
2023-04-02T14:48:56.590Z,100747.31
2023-04-02T14:51:32.194Z,100744.56
2023-04-02T14:54:27.207Z,100747.25
2023-04-02T14:57:05.800Z,100741.22
2023-04-02T14:59:57.167Z,100767.50
2023-04-02T15:02:53.420Z,100767.63
2023-04-02T15:05:44.364Z,100783.22
2023-04-02T15:08:43.571Z,100798.44
2023-04-02T15:11:20.079Z,100798.56
2023-04-02T15:14:23.466Z,100789.41
2023-04-02T15:16:50.595Z,100807.22
2023-04-02T15:19:19.157Z,100792.25
2023-04-02T15:21:57.211Z,100788.72
2023-04-02T15:24:42.662Z,100796.53
2023-04-02T15:27:39.435Z,100794.72
2023-04-02T15:30:24.230Z,100785.75
2023-04-02T15:32:52.675Z,100778.75
2023-04-02T15:35:29.402Z,100782.31
2023-04-02T15:38:18.344Z,100778.72
2023-04-02T15:40:55.356Z,100786.69
2023-04-02T15:43:44.741Z,100783.16
2023-04-02T15:47:08.951Z,100778.75
2023-04-02T15:50:00.638Z,100770.69
2023-04-02T15:52:54.859Z,100755.72
2023-04-02T15:55:57.263Z,100765.56
2023-04-02T15:58:55.062Z,100767.13
2023-04-02T16:02:18.453Z,100777.81
2023-04-02T16:04:54.152Z,100768.09
2023-04-02T16:07:25.586Z,100773.44
2023-04-02T16:10:30.623Z,100777.91
2023-04-02T16:13:01.619Z,100767.94
2023-04-02T16:15:43.885Z,100789.19
2023-04-02T16:18:26.229Z,100780.81
2023-04-02T16:20:56.704Z,100784.13
2023-04-02T16:23:42.849Z,100797.34
2023-04-02T16:26:23.649Z,100778.69
2023-04-02T16:29:06.266Z,100775.91
2023-04-02T16:32:05.173Z,100782.09
2023-04-02T16:35:22.245Z,100786.25
2023-04-02T16:38:35.359Z,100800.28
2023-04-02T16:41:38.995Z,100800.19
2023-04-02T16:44:30.384Z,100804.38
2023-04-02T16:47:44.559Z,100813.19
2023-04-02T16:50:38.280Z,100827.38
2023-04-02T16:54:00.370Z,100824.16
2023-04-02T16:56:49.652Z,100832.16
2023-04-02T16:59:34.554Z,100841.66
2023-04-02T17:02:31.573Z,100833.47
2023-04-02T17:05:12.845Z,100829.06
2023-04-02T17:07:52.168Z,100834.22
2023-04-02T17:10:40.382Z,100820.88
2023-04-02T17:13:41.912Z,100819.88
2023-04-02T17:16:46.351Z,100841.00
2023-04-02T17:19:16.680Z,100845.47
2023-04-02T17:21:53.300Z,100853.03
2023-04-02T17:24:51.112Z,100828.16
2023-04-02T17:27:28.585Z,100835.03
2023-04-02T17:30:04.344Z,100842.09
2023-04-02T17:32:33.839Z,100857.78
2023-04-02T17:35:27.952Z,100848.06
2023-04-02T17:38:15.758Z,100852.38
2023-04-02T17:41:22.574Z,100855.78
2023-04-02T17:44:50.483Z,100860.03
2023-04-02T17:47:26.624Z,100862.63
2023-04-02T17:50:12.282Z,100873.28
2023-04-02T17:52:39.747Z,100858.94
2023-04-02T17:55:31.361Z,100850.78
2023-04-02T17:58:02.086Z,100864.16
2023-04-02T18:00:38.818Z,100869.34
2023-04-02T18:03:37.556Z,100860.38
2023-04-02T18:06:34.806Z,100865.69
2023-04-02T18:09:33.367Z,100869.94
2023-04-02T18:12:01.672Z,100860.28
2023-04-02T18:14:38.608Z,100856.72
2023-04-02T18:17:20.292Z,100866.31
2023-04-02T18:20:27.826Z,100874.97
2023-04-02T18:23:22.669Z,100878.50
2023-04-02T18:26:12.771Z,100874.88
2023-04-02T18:28:40.107Z,100879.28
2023-04-02T18:31:39.918Z,100891.44
2023-04-02T18:34:10.322Z,100897.63
2023-04-02T18:37:15.350Z,100902.78
2023-04-02T18:40:22.221Z,100896.59
2023-04-02T18:42:52.564Z,100898.22
2023-04-02T18:45:31.783Z,100898.25
2023-04-02T18:48:05.441Z,100913.28
2023-04-02T18:50:36.370Z,100922.78
2023-04-02T18:53:16.921Z,100920.94
2023-04-02T18:56:10.762Z,100916.47
2023-04-02T18:59:12.263Z,100924.41
2023-04-02T19:01:47.254Z,100939.25
2023-04-02T19:04:26.697Z,100938.47
2023-04-02T19:07:09.027Z,100951.34
2023-04-02T19:09:42.465Z,100958.44
2023-04-02T19:12:19.530Z,100951.41
2023-04-02T19:14:50.994Z,100944.31
2023-04-02T19:17:39.002Z,100947.78
2023-04-02T19:20:25.616Z,100948.72
2023-04-02T19:22:59.059Z,100945.16
2023-04-02T19:25:54.111Z,100939.78
2023-04-02T19:28:59.132Z,100938.91
2023-04-02T19:31:29.124Z,100938.97
2023-04-02T19:34:09.136Z,100945.94
2023-04-02T19:36:55.427Z,100948.38
2023-04-02T19:39:51.037Z,100956.25
2023-04-02T19:42:41.991Z,100963.28
2023-04-02T19:45:50.898Z,100943.81
2023-04-02T19:48:38.201Z,100934.25
2023-04-02T19:51:05.598Z,100915.78
2023-04-02T19:53:33.336Z,100920.16
2023-04-02T19:56:01.235Z,100924.38
2023-04-02T19:58:34.513Z,100938.44
2023-04-02T20:01:02.618Z,100946.31
2023-04-02T20:03:33.129Z,100939.22
2023-04-02T20:06:01.017Z,100943.56
2023-04-02T20:08:28.866Z,100939.94
2023-04-02T20:10:58.618Z,100935.47
2023-04-02T20:13:26.193Z,100931.91
2023-04-02T20:15:53.633Z,100924.03
2023-04-02T20:18:21.563Z,100931.91
2023-04-02T20:20:49.751Z,100936.19
2023-04-02T20:23:17.595Z,100948.59
2023-04-02T20:25:46.926Z,100955.50
2023-04-02T20:28:14.541Z,100960.81
2023-04-02T20:30:42.201Z,100943.16
2023-04-02T20:33:09.693Z,100942.22
2023-04-02T20:35:37.902Z,100948.41
2023-04-02T20:38:06.933Z,100953.59
2023-04-02T20:40:34.346Z,100967.56
2023-04-02T20:43:02.202Z,100972.84
2023-04-02T20:45:29.651Z,100969.34
2023-04-02T20:47:57.679Z,100977.22
2023-04-02T20:50:24.903Z,100973.44
2023-04-02T20:52:52.656Z,100988.41
2023-04-02T20:55:20.219Z,100977.91
2023-04-02T20:57:47.778Z,100978.75
2023-04-02T21:00:15.582Z,100971.72
2023-04-02T21:02:42.964Z,100966.34
2023-04-02T21:05:10.419Z,100962.75
2023-04-02T21:07:37.823Z,100950.69
2023-04-02T21:10:05.650Z,100956.81
2023-04-02T21:12:33.010Z,100962.91
2023-04-02T21:15:02.562Z,100976.69
2023-04-02T21:17:30.612Z,100978.41
2023-04-02T21:19:58.086Z,100994.38
2023-04-02T21:22:25.877Z,100988.00
2023-04-02T21:24:53.289Z,100987.94
2023-04-02T21:27:25.582Z,100987.94
2023-04-02T21:29:53.130Z,100978.13
2023-04-02T21:32:21.993Z,100976.38
2023-04-02T21:34:49.722Z,100972.28
2023-04-02T21:37:17.078Z,100955.34
2023-04-02T21:39:44.422Z,100949.94
2023-04-02T21:42:13.150Z,100943.16
2023-04-02T21:44:40.722Z,100916.88
2023-04-02T21:47:08.320Z,100890.66
2023-04-02T21:49:36.018Z,100863.44
2023-04-02T21:52:03.464Z,100850.28
2023-04-02T21:54:30.781Z,100837.94
2023-04-02T21:56:58.281Z,100837.06
2023-04-02T21:59:26.007Z,100839.91
2023-04-02T22:01:54.342Z,100809.94
2023-04-02T22:04:24.912Z,100793.22
2023-04-02T22:06:53.480Z,100797.69
2023-04-02T22:09:24.805Z,100800.19
2023-04-02T22:11:55.655Z,100794.06
2023-04-02T22:14:23.855Z,100788.81
2023-04-02T22:16:52.334Z,100777.44
2023-04-02T22:19:19.920Z,100747.72
2023-04-02T22:21:47.314Z,100755.50
2023-04-02T22:24:18.885Z,100767.63
2023-04-02T22:26:46.850Z,100763.03
2023-04-02T22:29:14.517Z,100762.22
2023-04-02T22:31:41.993Z,100740.53
2023-04-02T22:34:09.700Z,100717.66
2023-04-02T22:36:37.099Z,100736.94
2023-04-02T22:39:07.105Z,100733.38
2023-04-02T22:41:34.627Z,100731.75
2023-04-02T22:44:02.425Z,100729.09
2023-04-02T22:46:30.599Z,100708.06
2023-04-02T22:48:58.280Z,100706.34
2023-04-02T22:51:27.918Z,100675.78
2023-04-02T22:53:56.488Z,100690.69
2023-04-02T22:56:29.743Z,100664.47
2023-04-02T22:58:57.144Z,100616.41
2023-04-02T23:01:29.258Z,100582.31
2023-04-02T23:03:56.790Z,100563.06
2023-04-02T23:06:24.870Z,100550.84
2023-04-02T23:08:52.334Z,100548.25
2023-04-02T23:11:26.031Z,100545.56
2023-04-02T23:13:55.813Z,100547.44
2023-04-02T23:16:23.138Z,100548.13
2023-04-02T23:18:51.264Z,100571.81
2023-04-02T23:21:20.900Z,100569.09
2023-04-02T23:23:48.982Z,100555.19
2023-04-02T23:26:21.210Z,100579.47
2023-04-02T23:28:49.092Z,100571.13
2023-04-02T23:31:20.486Z,100512.16
2023-04-02T23:33:47.915Z,100499.78
2023-04-02T23:36:21.535Z,100485.44
2023-04-02T23:38:48.992Z,100480.66
2023-04-02T23:41:17.434Z,100477.88
2023-04-02T23:43:45.093Z,100488.75
2023-04-02T23:46:12.414Z,100497.31
2023-04-02T23:48:39.749Z,100522.50
2023-04-02T23:51:07.513Z,100526.72
2023-04-02T23:53:35.258Z,100536.28
2023-04-02T23:56:02.589Z,100550.50
2023-04-02T23:58:30.039Z,100553.59
